createdAt,value
2023-04-17T06:26:28.000Z,9.628906
2023-04-17T06:26:54.000Z,9.598694
2023-04-17T06:27:14.000Z,9.558411
2023-04-17T06:27:40.000Z,9.518127
2023-04-17T06:28:00.000Z,9.487915
2023-04-17T06:28:21.000Z,9.437561
2023-04-17T06:28:41.000Z,9.437561
2023-04-17T06:29:25.000Z,9.346924
2023-04-17T06:29:45.000Z,9.306641
2023-04-17T06:30:06.000Z,9.226074
2023-04-17T06:30:26.000Z,9.216003
2023-04-17T06:30:46.000Z,9.185791
2023-04-17T06:31:18.000Z,9.165649
2023-04-17T06:31:38.000Z,9.145508
2023-04-17T06:31:58.000Z,9.145508
2023-04-17T06:32:18.000Z,9.155579
2023-04-17T14:31:02.000Z,15.600891
2023-04-17T14:31:22.000Z,15.480042
2023-04-17T14:31:43.000Z,15.328979
2023-04-17T14:32:03.000Z,15.177917
2023-04-17T14:32:23.000Z,15.036926
2023-04-17T14:32:47.000Z,14.855652
2023-04-17T14:33:07.000Z,14.744873
2023-04-17T14:33:27.000Z,14.593811
2023-04-17T14:33:47.000Z,14.483032
2023-04-17T14:34:08.000Z,14.362183
2023-04-17T14:34:28.000Z,14.231262
2023-04-17T14:34:48.000Z,14.130554
2023-04-17T14:35:08.000Z,14.019775
2023-04-17T14:35:28.000Z,13.898926
2023-04-17T14:35:49.000Z,13.757935
2023-04-17T14:36:09.000Z,13.627014
2023-04-17T14:36:41.000Z,13.465881
2023-04-17T14:37:01.000Z,13.385315
2023-04-17T14:37:21.000Z,13.314819
2023-04-17T14:37:41.000Z,13.274536
2023-04-17T14:38:02.000Z,13.193970
2023-04-17T14:38:22.000Z,13.123474
2023-04-17T14:38:42.000Z,13.063049
2023-04-17T14:39:02.000Z,13.032837
2023-04-17T14:39:23.000Z,12.962341
2023-04-17T14:39:43.000Z,12.911987
2023-04-17T14:40:03.000Z,12.871704
2023-04-17T14:40:23.000Z,12.811279
2023-04-17T14:40:44.000Z,12.770996
2023-04-17T14:41:04.000Z,12.730713
2023-04-17T14:41:24.000Z,12.690430
2023-04-17T14:41:45.000Z,12.609863
2023-04-17T14:42:05.000Z,12.549438
2023-04-17T14:42:25.000Z,12.478943
2023-04-17T14:42:45.000Z,12.408447
2023-04-17T14:43:06.000Z,12.358093
2023-04-17T14:43:26.000Z,12.297668
2023-04-17T14:43:46.000Z,12.247314
2023-04-17T14:44:06.000Z,12.217102
2023-04-17T14:44:38.000Z,12.176819
2023-04-17T14:44:58.000Z,12.156677
2023-04-17T14:45:36.000Z,12.116394
2023-04-17T14:45:56.000Z,12.116394
2023-04-17T14:46:16.000Z,12.116394
2023-04-17T14:46:42.000Z,12.116394
2023-04-17T14:47:02.000Z,12.035828
2023-04-17T14:49:45.000Z,12.025757
